createdAt,value
2023-02-19T00:02:46.839Z,96064.45
2023-02-19T00:06:20.860Z,96071.85
2023-02-19T00:09:40.286Z,96064.52
2023-02-19T00:13:11.863Z,96069.30
2023-02-19T00:17:17.834Z,96064.86
2023-02-19T00:20:50.765Z,96063.90
2023-02-19T00:24:20.779Z,96072.90
2023-02-19T00:26:49.152Z,96074.36
2023-02-19T00:29:21.584Z,96082.25
2023-02-19T00:31:49.653Z,96076.77
2023-02-19T00:34:17.677Z,96073.44
2023-02-19T00:36:45.629Z,96075.16
2023-02-19T00:39:16.251Z,96077.67
2023-02-19T00:41:46.315Z,96081.61
2023-02-19T00:44:16.526Z,96084.63
2023-02-19T00:46:47.503Z,96083.70
2023-02-19T00:49:20.027Z,96078.66
2023-02-19T00:51:48.309Z,96084.02
2023-02-19T00:54:16.679Z,96087.49
2023-02-19T00:56:44.492Z,96086.78
2023-02-19T00:59:12.777Z,96079.77
2023-02-19T01:02:20.803Z,96068.02
2023-02-19T01:05:55.178Z,96080.08
2023-02-19T01:09:47.790Z,96069.50
2023-02-19T01:13:14.186Z,96071.92
2023-02-19T01:17:02.331Z,96056.16
2023-02-19T01:20:31.837Z,96076.16
2023-02-19T01:24:02.086Z,96068.05
2023-02-19T01:27:58.818Z,96066.33
2023-02-19T01:32:01.956Z,96073.84
2023-02-19T01:35:49.147Z,96070.19
2023-02-19T01:43:02.923Z,96057.60
2023-02-19T01:46:34.116Z,96054.25
2023-02-19T01:52:55.951Z,96062.08
2023-02-19T01:55:24.361Z,96057.13
2023-02-19T01:57:55.618Z,96061.56
2023-02-19T02:00:24.970Z,96052.88
2023-02-19T02:02:58.611Z,96060.05
2023-02-19T02:05:45.973Z,96066.27
2023-02-19T02:08:31.426Z,96071.34
2023-02-19T02:10:59.716Z,96061.70
2023-02-19T02:13:28.540Z,96064.92
2023-02-19T02:16:10.768Z,96061.52
2023-02-19T02:19:01.921Z,96062.44
2023-02-19T02:21:59.221Z,96079.56
2023-02-19T02:24:53.271Z,96079.39
2023-02-19T02:27:44.481Z,96078.00
2023-02-19T02:30:30.181Z,96084.42
2023-02-19T02:33:13.122Z,96087.98
2023-02-19T02:35:56.100Z,96095.05
2023-02-19T02:38:29.102Z,96096.46
2023-02-19T02:40:57.792Z,96105.39
2023-02-19T02:43:25.843Z,96104.02
2023-02-19T02:45:55.351Z,96107.39
2023-02-19T02:48:35.211Z,96107.47
2023-02-19T02:51:20.329Z,96105.38
2023-02-19T02:54:14.206Z,96114.45
2023-02-19T02:56:44.349Z,96114.20
2023-02-19T02:59:14.965Z,96114.77
2023-02-19T03:02:04.920Z,96114.21
2023-02-19T03:05:24.967Z,96110.74
2023-02-19T03:08:05.324Z,96116.77
2023-02-19T03:10:41.188Z,96111.45
2023-02-19T03:13:35.527Z,96121.13
2023-02-19T03:16:25.614Z,96122.73
2023-02-19T03:19:15.839Z,96120.52
2023-02-19T03:21:47.085Z,96130.40
2023-02-19T03:24:36.134Z,96135.14
2023-02-19T03:27:04.980Z,96133.27
2023-02-19T03:29:39.902Z,96137.13
2023-02-19T03:32:14.867Z,96144.30
2023-02-19T03:34:53.047Z,96154.69
2023-02-19T03:37:28.417Z,96158.63
2023-02-19T03:39:57.757Z,96165.70
2023-02-19T03:42:43.450Z,96168.92
2023-02-19T03:45:25.640Z,96175.60
2023-02-19T03:48:18.806Z,96182.59
2023-02-19T03:51:02.121Z,96190.52
2023-02-19T03:53:37.937Z,96203.12
2023-02-19T03:56:11.706Z,96201.39
2023-02-19T03:59:02.257Z,96202.42
2023-02-19T04:01:47.157Z,96209.53
2023-02-19T04:04:30.392Z,96208.92
2023-02-19T04:06:59.114Z,96211.10
2023-02-19T04:09:38.601Z,96210.92
2023-02-19T04:12:16.528Z,96212.08
2023-02-19T04:15:04.301Z,96215.32
2023-02-19T04:17:53.475Z,96212.84
2023-02-19T04:20:26.174Z,96215.80
2023-02-19T04:22:56.469Z,96218.16
2023-02-19T04:25:29.475Z,96215.86
2023-02-19T04:28:00.099Z,96214.66
2023-02-19T04:30:50.200Z,96213.04
2023-02-19T04:33:18.911Z,96211.06
2023-02-19T04:35:46.966Z,96214.30
2023-02-19T04:38:18.668Z,96212.96
2023-02-19T04:40:48.985Z,96219.38
2023-02-19T04:43:37.257Z,96223.34
2023-02-19T04:46:06.310Z,96223.30
2023-02-19T04:48:35.942Z,96223.55
2023-02-19T04:51:08.179Z,96223.34
2023-02-19T04:53:39.834Z,96231.09
2023-02-19T04:56:19.030Z,96225.09
2023-02-19T04:59:13.968Z,96227.95
2023-02-19T05:01:43.515Z,96224.63
2023-02-19T05:04:11.955Z,96223.92
2023-02-19T05:06:43.631Z,96221.83
2023-02-19T05:09:13.388Z,96221.97
2023-02-19T05:11:42.192Z,96217.16
2023-02-19T05:14:10.178Z,96216.84
2023-02-19T05:16:38.825Z,96216.92
2023-02-19T05:19:07.110Z,96214.14
2023-02-19T05:21:35.430Z,96217.54
2023-02-19T05:24:03.746Z,96216.31
2023-02-19T05:26:45.355Z,96215.63
2023-02-19T05:29:14.389Z,96219.21
2023-02-19T05:31:44.421Z,96222.20
2023-02-19T05:34:14.056Z,96223.27
2023-02-19T05:36:42.806Z,96223.23
2023-02-19T05:39:12.754Z,96225.89
2023-02-19T05:41:41.416Z,96226.83
2023-02-19T05:44:11.524Z,96223.11
2023-02-19T05:46:41.062Z,96220.48
2023-02-19T05:49:09.461Z,96215.69
2023-02-19T05:51:40.661Z,96209.41
2023-02-19T05:54:28.732Z,96206.60
2023-02-19T05:56:59.345Z,96202.44
2023-02-19T05:59:27.814Z,96199.58
2023-02-19T06:01:59.822Z,96193.77
2023-02-19T06:04:29.180Z,96190.87
2023-02-19T06:06:58.645Z,96185.83
2023-02-19T06:09:27.203Z,96179.98
2023-02-19T06:12:16.051Z,96180.35
2023-02-19T06:14:45.944Z,96181.88
2023-02-19T06:17:15.847Z,96170.63
2023-02-19T06:19:44.724Z,96161.27
2023-02-19T06:22:16.153Z,96154.65
2023-02-19T06:24:47.833Z,96157.46
2023-02-19T06:27:17.400Z,96155.68
2023-02-19T06:29:46.252Z,96169.04
2023-02-19T06:32:16.735Z,96164.61
2023-02-19T06:34:51.806Z,96162.16
2023-02-19T06:37:20.695Z,96165.90
2023-02-19T06:39:49.189Z,96165.65
2023-02-19T06:42:19.250Z,96159.07
2023-02-19T06:44:48.908Z,96156.27
2023-02-19T06:47:20.498Z,96155.77
2023-02-19T06:50:08.624Z,96163.35
2023-02-19T06:52:37.755Z,96166.52
2023-02-19T06:55:09.593Z,96166.66
2023-02-19T06:57:38.288Z,96166.02
2023-02-19T07:00:18.772Z,96163.13
2023-02-19T07:02:58.210Z,96169.70
2023-02-19T07:05:26.960Z,96162.70
2023-02-19T07:07:55.315Z,96162.73
2023-02-19T07:10:23.320Z,96153.11
2023-02-19T07:12:51.262Z,96155.67
2023-02-19T07:15:20.108Z,96155.10
2023-02-19T07:17:51.729Z,96151.11
2023-02-19T07:20:27.116Z,96146.06
2023-02-19T07:22:57.573Z,96154.31
2023-02-19T07:25:45.389Z,96156.22
2023-02-19T07:28:14.901Z,96157.98
2023-02-19T07:30:44.682Z,96153.09
2023-02-19T07:33:45.846Z,96154.70
2023-02-19T07:37:21.808Z,96154.48
2023-02-19T07:41:14.230Z,96158.55
2023-02-19T07:45:07.856Z,96159.13
2023-02-19T07:48:59.802Z,96150.02
2023-02-19T07:52:54.004Z,96151.46
2023-02-19T07:59:59.850Z,96145.27
2023-02-19T08:03:43.732Z,96143.09
2023-02-19T08:07:39.062Z,96139.00
2023-02-19T08:11:25.338Z,96137.08
2023-02-19T08:14:44.126Z,96142.11
2023-02-19T08:18:11.761Z,96140.72
2023-02-19T08:21:59.978Z,96128.72
2023-02-19T08:25:18.957Z,96125.23
2023-02-19T08:29:03.903Z,96121.48
2023-02-19T08:32:37.793Z,96110.23
2023-02-19T08:36:30.783Z,96105.12
2023-02-19T08:40:37.797Z,96102.67
2023-02-19T08:44:09.811Z,96098.05
2023-02-19T08:48:03.978Z,96099.16
2023-02-19T08:51:35.767Z,96095.20
2023-02-19T08:55:27.798Z,96088.50
2023-02-19T08:59:08.892Z,96084.27
2023-02-19T09:02:46.265Z,96082.91
2023-02-19T09:06:40.088Z,96077.20
2023-02-19T09:14:04.738Z,96066.05
2023-02-19T09:21:32.954Z,96084.21
2023-02-19T09:25:04.921Z,96096.20
2023-02-19T09:28:38.148Z,96101.86
2023-02-19T09:32:07.846Z,96099.43
2023-02-19T09:35:52.852Z,96089.75
2023-02-19T09:39:21.746Z,96084.05
2023-02-19T09:41:58.045Z,96078.71
2023-02-19T09:44:30.982Z,96075.20
2023-02-19T09:47:01.303Z,96094.42
2023-02-19T09:49:34.119Z,96077.85
2023-02-19T09:52:23.028Z,96083.16
2023-02-19T09:54:52.218Z,96067.48
2023-02-19T09:57:21.678Z,96072.79
2023-02-19T09:59:54.205Z,96077.06
2023-02-19T10:02:25.673Z,96077.27
2023-02-19T10:04:54.183Z,96084.31
2023-02-19T10:07:25.645Z,96085.73
2023-02-19T10:10:01.129Z,96084.36
2023-02-19T10:12:31.459Z,96081.33
2023-02-19T10:15:09.637Z,96081.27
2023-02-19T10:17:37.683Z,96101.41
2023-02-19T10:20:06.390Z,96080.52
2023-02-19T10:22:38.051Z,96074.70
2023-02-19T10:25:06.663Z,96067.21
2023-02-19T10:27:34.604Z,96058.54
2023-02-19T10:30:02.752Z,96048.28
2023-02-19T10:32:30.719Z,96058.59
2023-02-19T10:35:16.437Z,96052.66
2023-02-19T10:37:49.334Z,96057.06
2023-02-19T10:40:21.890Z,96049.23
2023-02-19T10:42:53.796Z,96047.45
2023-02-19T10:45:30.249Z,96050.19
2023-02-19T10:47:58.746Z,96048.20
2023-02-19T10:50:32.183Z,96049.19
2023-02-19T10:53:02.101Z,96053.96
2023-02-19T10:55:36.660Z,96023.95
2023-02-19T10:58:24.155Z,96015.89
2023-02-19T11:01:13.408Z,96024.75
2023-02-19T11:03:41.776Z,96024.39
2023-02-19T11:06:12.092Z,96020.66
2023-02-19T11:08:50.302Z,96028.11
2023-02-19T11:11:38.748Z,96032.75
2023-02-19T11:14:18.949Z,96042.60
2023-02-19T11:16:52.027Z,96042.10
2023-02-19T11:19:28.705Z,96026.08
2023-02-19T11:21:56.756Z,96012.66
2023-02-19T11:24:34.040Z,96025.46
2023-02-19T11:27:15.259Z,96020.46
2023-02-19T11:29:43.290Z,96023.67
2023-02-19T11:32:29.735Z,96021.52
2023-02-19T11:35:25.222Z,96007.95
2023-02-19T11:38:01.800Z,96011.20
2023-02-19T11:40:44.739Z,96012.66
2023-02-19T11:43:38.729Z,96002.56
2023-02-19T11:46:17.733Z,95995.63
2023-02-19T11:49:02.601Z,95997.02
2023-02-19T11:51:54.006Z,95995.38
2023-02-19T11:54:41.766Z,95992.21
2023-02-19T11:57:39.579Z,96001.85
2023-02-19T12:00:24.698Z,95997.85
2023-02-19T12:03:18.426Z,95993.55
2023-02-19T12:06:20.075Z,95995.17
2023-02-19T12:09:12.119Z,95994.42
2023-02-19T12:12:10.512Z,95998.02
2023-02-19T12:15:07.991Z,95995.69
2023-02-19T12:18:10.858Z,95997.05
2023-02-19T12:20:58.808Z,95992.64
2023-02-19T12:24:01.154Z,95998.80
2023-02-19T12:27:02.041Z,96000.64
2023-02-19T12:30:01.612Z,95986.70
2023-02-19T12:32:50.272Z,95990.13
2023-02-19T12:35:44.884Z,95984.89
2023-02-19T12:38:25.982Z,95985.71
2023-02-19T12:41:13.056Z,95988.50
2023-02-19T12:43:44.897Z,95994.98
2023-02-19T12:46:20.641Z,95985.36
2023-02-19T12:48:58.937Z,95993.77
2023-02-19T12:51:37.101Z,95994.75
2023-02-19T12:54:29.400Z,96003.77
2023-02-19T12:57:05.659Z,96006.36
2023-02-19T12:59:52.108Z,96006.98
2023-02-19T13:02:33.394Z,96003.95
2023-02-19T13:05:11.261Z,96009.59
2023-02-19T13:07:49.860Z,95998.98
2023-02-19T13:10:31.418Z,95997.08
2023-02-19T13:13:05.596Z,96005.07
2023-02-19T13:15:39.334Z,95997.39
2023-02-19T13:18:19.517Z,96003.84
2023-02-19T13:20:48.856Z,95996.20
2023-02-19T13:23:44.848Z,95997.41
2023-02-19T13:26:43.171Z,95984.90
2023-02-19T13:29:33.052Z,95994.91
2023-02-19T13:32:22.751Z,95986.83
2023-02-19T13:35:16.823Z,95994.29
2023-02-19T13:37:45.282Z,95985.65
2023-02-19T13:40:36.683Z,95973.48
2023-02-19T13:43:14.027Z,95972.92
2023-02-19T13:45:46.036Z,95966.59
2023-02-19T13:48:28.185Z,95966.03
2023-02-19T13:51:35.846Z,95950.42
2023-02-19T13:54:14.647Z,95948.41
2023-02-19T13:56:42.781Z,95936.33
2023-02-19T13:59:25.879Z,95938.33
2023-02-19T14:02:26.703Z,95939.30
2023-02-19T14:05:00.150Z,95945.29
2023-02-19T14:07:55.523Z,95950.40
2023-02-19T14:10:50.752Z,95952.98
2023-02-19T14:13:55.392Z,95942.83
2023-02-19T14:17:05.550Z,95936.97
2023-02-19T14:19:50.481Z,95934.18
2023-02-19T14:22:52.602Z,95925.70
2023-02-19T14:25:29.457Z,95920.71
2023-02-19T14:28:16.864Z,95920.80
2023-02-19T14:31:03.448Z,95919.64
2023-02-19T14:33:34.841Z,95911.70
2023-02-19T14:36:14.059Z,95909.10
2023-02-19T14:38:50.587Z,95913.47
2023-02-19T14:41:19.001Z,95905.55
2023-02-19T14:43:50.735Z,95916.74
2023-02-19T14:46:31.165Z,95920.66
2023-02-19T14:49:07.881Z,95907.01
2023-02-19T14:51:41.411Z,95894.55
2023-02-19T14:54:24.007Z,95900.48
2023-02-19T14:56:54.179Z,95887.31
2023-02-19T14:59:27.078Z,95889.99
2023-02-19T15:01:57.322Z,95879.91
2023-02-19T15:04:28.924Z,95884.20
2023-02-19T15:07:00.448Z,95866.11
2023-02-19T15:09:33.310Z,95870.59
2023-02-19T15:12:02.739Z,95858.16
2023-02-19T15:14:32.293Z,95852.58
2023-02-19T15:17:04.232Z,95851.35
2023-02-19T15:19:36.209Z,95839.91
2023-02-19T15:22:04.504Z,95823.65
2023-02-19T15:24:32.347Z,95819.55
2023-02-19T15:27:00.388Z,95811.16
2023-02-19T15:30:28.020Z,95818.75
2023-02-19T15:33:39.942Z,95831.10
2023-02-19T15:36:44.844Z,95845.81
2023-02-19T15:39:53.335Z,95854.84
2023-02-19T15:43:10.264Z,95875.48
2023-02-19T15:45:47.417Z,95890.09
2023-02-19T15:48:21.941Z,95904.68
2023-02-19T15:50:57.837Z,95918.54
2023-02-19T15:53:37.669Z,95925.16
2023-02-19T15:56:45.757Z,95926.14
2023-02-19T15:59:33.375Z,95921.33
2023-02-19T16:02:03.484Z,95923.94
2023-02-19T16:04:34.411Z,95931.42
2023-02-19T16:07:05.868Z,95926.77
2023-02-19T16:09:37.097Z,95932.94
2023-02-19T16:12:21.235Z,95927.16
2023-02-19T16:14:49.374Z,95913.20
2023-02-19T16:17:27.833Z,95900.80
2023-02-19T16:19:58.918Z,95912.87
2023-02-19T16:22:34.130Z,95914.73
2023-02-19T16:25:05.998Z,95920.13
2023-02-19T16:27:37.697Z,95928.77
2023-02-19T16:30:26.546Z,95930.00
2023-02-19T16:33:26.390Z,95918.59
2023-02-19T16:35:56.620Z,95892.92
2023-02-19T16:38:25.118Z,95874.33
2023-02-19T16:41:18.869Z,95869.10
2023-02-19T16:48:45.842Z,95858.48
2023-02-19T16:52:11.823Z,95869.55
2023-02-19T17:03:24.801Z,95883.70
2023-02-19T17:10:32.868Z,95906.20
2023-02-19T17:17:54.823Z,95930.98
2023-02-19T17:22:07.829Z,95934.60
2023-02-19T17:25:43.835Z,95938.88
2023-02-19T17:29:17.790Z,95943.09
2023-02-19T17:47:21.828Z,95924.91
2023-02-19T17:59:37.837Z,95916.89
2023-02-19T18:07:25.610Z,95915.07
2023-02-19T18:15:23.719Z,95948.60
2023-02-19T18:19:01.870Z,95950.00
2023-02-19T18:22:48.826Z,95944.61
2023-02-19T18:26:21.825Z,95953.71
2023-02-19T18:30:09.875Z,95970.45
2023-02-19T18:33:30.836Z,95975.23
2023-02-19T18:37:04.823Z,95981.21
2023-02-19T18:41:01.834Z,96001.52
2023-02-19T18:44:56.839Z,96029.00
2023-02-19T18:48:58.183Z,96030.08
2023-02-19T18:52:29.880Z,96042.14
2023-02-19T18:56:13.630Z,96053.80
2023-02-19T19:00:06.995Z,96073.79
2023-02-19T19:03:48.862Z,96093.12
2023-02-19T19:11:38.791Z,96138.09
2023-02-19T19:18:51.862Z,96172.50
2023-02-19T19:22:39.939Z,96174.08
2023-02-19T19:26:12.154Z,96161.75
2023-02-19T19:30:02.824Z,96159.81
2023-02-19T19:37:12.878Z,96169.08
2023-02-19T19:40:41.964Z,96172.07
2023-02-19T19:48:14.820Z,96175.61
2023-02-19T20:07:24.868Z,96172.59
2023-02-19T20:10:55.786Z,96176.64
2023-02-19T20:18:15.770Z,96188.86
2023-02-19T20:21:51.831Z,96188.83
2023-02-19T20:41:30.834Z,96198.34
2023-02-19T20:47:54.837Z,96207.54
2023-02-19T20:51:32.838Z,96218.27
2023-02-19T20:55:10.766Z,96222.79
2023-02-19T21:03:10.653Z,96212.08
2023-02-19T21:06:48.832Z,96220.83
2023-02-19T21:17:32.917Z,96234.19
2023-02-19T21:21:11.775Z,96236.41
2023-02-19T21:24:40.841Z,96247.84
2023-02-19T21:39:06.936Z,96303.11
2023-02-19T21:41:42.331Z,96318.95
2023-02-19T21:44:10.283Z,96322.16
2023-02-19T21:46:38.766Z,96326.86
2023-02-19T21:49:11.692Z,96327.56
2023-02-19T21:51:43.169Z,96334.78
2023-02-19T21:54:18.195Z,96339.00
2023-02-19T21:56:47.094Z,96348.52
2023-02-19T21:59:15.305Z,96354.17
2023-02-19T22:01:43.859Z,96370.27
2023-02-19T22:04:24.509Z,96371.42
2023-02-19T22:06:56.287Z,96389.00
2023-02-19T22:09:24.815Z,96386.85
2023-02-19T22:11:52.800Z,96395.76
2023-02-19T22:14:21.146Z,96410.41
2023-02-19T22:16:49.797Z,96421.50
2023-02-19T22:19:18.886Z,96426.85
2023-02-19T22:21:47.498Z,96427.35
2023-02-19T22:24:24.376Z,96432.02
2023-02-19T22:26:56.760Z,96433.98
2023-02-19T22:29:25.268Z,96437.07
2023-02-19T22:31:59.824Z,96444.11
2023-02-19T22:34:27.836Z,96454.83
2023-02-19T22:36:55.955Z,96453.19
2023-02-19T22:39:27.123Z,96451.19
2023-02-19T22:41:58.451Z,96454.17
2023-02-19T22:44:26.364Z,96459.83
2023-02-19T22:46:56.109Z,96460.98
2023-02-19T22:49:24.139Z,96466.99
2023-02-19T22:52:00.636Z,96459.55
2023-02-19T22:54:29.037Z,96457.80
2023-02-19T22:56:57.837Z,96462.28
2023-02-19T22:59:27.680Z,96458.95
2023-02-19T23:01:56.125Z,96458.56
2023-02-19T23:04:25.690Z,96455.64
2023-02-19T23:06:53.789Z,96465.27
2023-02-19T23:09:25.439Z,96465.05
2023-02-19T23:12:00.802Z,96465.30
2023-02-19T23:14:36.056Z,96464.16
2023-02-19T23:17:05.316Z,96468.39
2023-02-19T23:19:33.644Z,96469.30
2023-02-19T23:22:01.725Z,96475.86
2023-02-19T23:24:29.738Z,96478.31
2023-02-19T23:26:59.575Z,96470.65
2023-02-19T23:29:30.687Z,96471.36
2023-02-19T23:32:00.531Z,96475.20
2023-02-19T23:34:29.310Z,96478.64
2023-02-19T23:36:59.620Z,96488.02
2023-02-19T23:39:58.750Z,96491.57
2023-02-19T23:43:24.189Z,96502.73
2023-02-19T23:46:47.790Z,96500.42
2023-02-19T23:50:05.826Z,96512.04
2023-02-19T23:53:22.769Z,96509.52
2023-02-19T23:56:49.828Z,96511.35
